• Join FlightAware (Why Join?)
  • Login
  • US Flag 
08:17PM EST


 

Airport Tracker/Info


-or-


 

Live Flight TrackerFlight Track Log ✈ EGF3900 ✈ 11-Jun-2013 ✈ KCOU - KORD

Flight Track Log - Related Links

Times and Time Zones

All times are in EDT time to prevent confusion due to time zone crossing. See the EGF3900 flight status page for this flight to view local times or setup timezone preferences in your user account.

Time Position Orientation Groundspeed Altitude Reporting Facility
EDT Latitude Longitude Course Direction KTS MPH feet Rate Location/Type
03:56PM 38.7811 -92.2247 41° Northeast 166 191 2,200  Level Kansas City Center
03:57PM 38.7956 -92.1547 75° East 256 295 4,100 2,100 Climbing Kansas City Center
03:58PM 38.9999 -91.9612 46° Northeast  Level FlightAware Approximate
03:58PM 38.8569 -92.1169 26° Northeast 244 281 6,600  Level Kansas City Center
03:59PM 39.0629 -91.8772 46° Northeast  Level FlightAware Approximate
03:59PM 38.9203 -92.0775 26° Northeast 249 287 8,800  Level Kansas City Center
04:00PM 39.1296 -91.7981 41° Northeast  Level FlightAware Approximate
04:00PM 38.9781 -92.0197 38° Northeast 264 304 10,700  Level Kansas City Center
04:01PM 39.1979 -91.7211 41° Northeast  Level FlightAware Approximate
04:01PM 39.0358 -91.9433 46° Northeast 289 333 12,200  Level Kansas City Center
04:02PM 39.1122 -91.8464 45° Northeast 314 361 14,000 1,620 Climbing Kansas City Center
04:03PM 39.1822 -91.7569 45° Northeast 341 392 15,600 1,560 Climbing Kansas City Center
04:04PM 39.2583 -91.6611 44° Northeast 357 411 17,200 1,440 Climbing Kansas City Center
04:05PM 39.3333 -91.5658 44° Northeast 370 426 18,700 1,440 Climbing Kansas City Center
04:06PM 39.4083 -91.4692 45° Northeast 377 434 20,200 1,440 Climbing Kansas City Center
04:07PM 39.4847 -91.3706 45° Northeast 383 441 21,700 1,380 Climbing Kansas City Center
04:08PM 39.5606 -91.2728 45° Northeast 383 441 23,100 1,380 Climbing Kansas City Center
04:09PM 39.6372 -91.1736 45° Northeast 387 445 24,600 1,440 Climbing Kansas City Center
04:10PM 39.7142 -91.0731 45° Northeast 390 449 26,100 1,140 Climbing Kansas City Center
04:11PM 39.8181 -90.9703 37° Northeast 392 451 27,000 420 Climbing Kansas City Center
04:12PM 39.9019 -90.8844 38° Northeast 416 479 27,000  Level Kansas City Center
04:13PM 40.0003 -90.7847 38° Northeast 440 506 27,000  Level Kansas City Center
04:14PM 40.1164 -90.6686 37° Northeast 439 505 27,000  Level Kansas City Center
04:15PM 40.2117 -90.5728 38° Northeast 435 501 27,000  Level Kansas City Center
04:16PM 40.3050 -90.4758 38° Northeast 430 495 27,000  Level Kansas City Center
04:17PM 40.4017 -90.3761 38° Northeast 435 501 27,000  Level Kansas City Center
04:18PM 40.4611 -90.3172 37° Northeast 445 512 27,000  Level Chicago Center
04:19PM 40.5581 -90.2142 39° Northeast 454 522 27,000 -300 Level Chicago Center
04:20PM 40.6594 -90.1114 38° Northeast 462 532 26,500 -1,140 Descending Chicago Center
04:21PM 40.7828 -89.9850 38° Northeast 469 540 24,700 -1,260 Descending Chicago Center
04:22PM 40.8808 -89.8839 38° Northeast 452 520 24,000 -360 Descending Chicago Center
04:23PM 40.9753 -89.7822 39° Northeast 442 509 24,000  Level Chicago Center
04:24PM 41.0397 -89.6547 56° Northeast 449 517 24,000 -540 Level Chicago Center
04:25PM 41.1225 -89.4867 57° Northeast 452 520 22,900 -1,560 Descending Chicago Center
04:26PM 41.1947 -89.3458 56° Northeast 460 529 20,800 -2,040 Descending Chicago Center
04:27PM 41.2631 -89.2083 56° Northeast 451 519 18,800 -2,340 Descending Chicago Center
04:28PM 41.3317 -89.0692 57° Northeast 434 499 16,000 -2,460 Descending Chicago Center
04:29PM 41.3942 -88.9414 57° Northeast 417 480 13,800 -2,040 Descending Chicago Center
04:30PM 41.4575 -88.8169 56° Northeast 408 470 11,800 -1,440 Descending Chicago Center
04:31PM 41.5186 -88.6892 57° Northeast 409 471 10,900 -360 Descending Chicago Center
04:32PM 41.5772 -88.5400 62° Northeast 380 437 11,100 -120 Climbing Chicago Center
04:34PM 41.6297 -88.4231 59° Northeast 369 425 10,700 -540 Descending Chicago Center
04:35PM 41.6931 -88.3194 51° Northeast 362 417 10,000 -420 Descending Chicago Center
04:36PM 41.7542 -88.2144 52° Northeast 358 412 9,900 -780 Descending Chicago Center
04:37PM 41.8086 -88.1233 51° Northeast 316 364 8,500 -1,380 Descending Chicago Center
04:38PM 41.8567 -88.0361 53° Northeast 296 341 7,100 -780 Descending Chicago Center
04:39PM 41.8722 -87.9150 80° East 279 321 7,000 -180 Descending Chicago Center
04:40PM 41.8822 -87.8078 83° East 288 331 6,800 -780 Descending Chicago Center
04:41PM 41.8850 -87.7153 88° East 256 295 5,500 -960 Descending Chicago Center
04:42PM 41.8844 -87.6228 90° East 249 287 4,900 -300 Descending Chicago Center
04:43PM 41.9425 -87.6047 13° North 244 281 5,000 -540 Climbing Chicago Center
04:44PM 41.9733 -87.6747 301° West 194 223 3,800 -1,200 Descending Chicago Center